Airfield :
LOGIN :

Register | Disclaimer

   EN    FR    IT 

 










Legend :    VFR   Marginal VFR   IFR   Intensive IFR   Very Intensive IFR
Visi :
Ceiling :
>= 8 km
>= 3000ft
5 to 8 km
1000 to 3000 ft
1500m to 5 km
500 to 1000 ft
800 to 1500m
200 to 500 ft
< 800m
< 200 ft
Symbols :   Thunderstorms  Fog  Heavy snow  Heavy precipitations  Wind > 20 kt
SIGMETs :     Misc.  Thunderstorms  Icing  Turbulence  Mountain Waves  Volcanic Ashes






- Airport Elevation : 46 ft
- IATA code : SNN


EINN - Shannon

CURRENT METAR :
  • 230100Z 10007KT 7000 -RADZ SCT012 BKN016 07/06 Q1007 NOSIG

EXPIRED METARs :
  • 230030Z 13006KT 7000 -RA SCT014 BKN022 07/06 Q1008 NOSIG
  • 230000Z 14007KT 8000 -RA SCT014 BKN030 07/07 Q1009 NOSIG
  • 222330Z 17009KT 9999 -RA SCT013 BKN034 07/07 Q1010 NOSIG
  • 222300Z 18008KT 9999 -RA SCT013 BKN032 07/07 Q1012 NOSIG
  • 222230Z 17009KT 9999 -RA BKN013 BKN032 07/07 Q1012 NOSIG

TAF TAF EINN
Valid from the 23 at 00:00 until the 24 at 00:00 UTC


222300Z 2300/2324 17006KT 9999 -RA SCT012 BKN018
TEMPO 2300/2306 5000 RA BKN012
PROB30
TEMPO 2300/2304 2500 BKN007
BECMG 2304/2306 26011KT
BECMG 2306/2308 NSW FEW012 BKN018
TEMPO 2306/2309 5000 -RA BKN012
BECMG 2308/2310 31015G26KT
BECMG 2310/2312 31009KT
BECMG 2315/2317 18005KT
BECMG 2318/2320 13010KT -RA SCT008 BKN012
BECMG 2321/2323 13018G28KT
TEMPO 2321/2324 5000 RA BKN008
PROB30
TEMPO 2321/2324 3000 RASN BKN006



MET'MAP, your aeronautical weather chart ! - Copyright ORBIFLY December 2007 - Disclaimer

ORBIFLY MET'MAP TEAM :

Programming & Development : Alexandra Zaïnal
Concept & original design : Baudouin d'Aumeries
Assistance for programming : Marc-Olivier Méhu
Technical & hardware support : Manuel Goepfert

Contact : metmap@orbifly.com




SOURCES & CREDITS :

   NOAA